Time;durP1;ratioP1;P1;durP2;ratioP2;P2;SDS_P1;SDS_P2;PMS_P1;PMS_P2;Temp;Humidity;BMP_temperature;BMP_pressure;BME280_temperature;BME280_humidity;BME280_pressure;Samples;Min_cycle;Max_cycle;Signal;HPM_P1;HPM_P2
2022/10/06 00:04:02;;;;;;;1.27;0.50;;;;;;;20.02;47.41;102207.78;16131480;19;129855;-61
2022/10/06 00:09:24;;;;;;;0.93;0.30;;;;;;;20.00;47.85;102202.44;16130013;19;130506;-61
2022/10/06 00:14:45;;;;;;;0.63;0.20;;;;;;;19.99;47.85;102232.16;16130819;19;130373;-62
2022/10/06 00:20:08;;;;;;;0.85;0.38;;;;;;;19.98;47.61;102230.41;16130335;19;129028;-62
2022/10/06 00:25:30;;;;;;;0.52;0.25;;;;;;;19.98;47.79;102243.47;16134049;19;129680;-62
2022/10/06 00:30:54;;;;;;;1.85;0.35;;;;;;;19.96;47.67;102260.34;16129050;19;129794;-62
2022/10/06 00:36:17;;;;;;;1.98;0.30;;;;;;;19.95;47.80;102266.97;16130670;19;129834;-61
2022/10/06 00:41:38;;;;;;;0.52;0.20;;;;;;;19.93;47.83;102266.34;16128002;19;129889;-61
2022/10/06 00:47:01;;;;;;;1.33;0.30;;;;;;;19.91;47.63;102285.16;16126604;19;129671;-62
2022/10/06 00:52:27;;;;;;;0.82;0.38;;;;;;;19.92;47.74;102306.31;16125018;19;130341;-61
2022/10/06 00:57:51;;;;;;;1.45;0.30;;;;;;;19.89;47.60;102303.97;16126320;19;129369;-62
2022/10/06 01:03:36;;;;;;;1.05;0.20;;;;;;;19.90;47.41;102310.38;16129897;19;132297;-62
2022/10/06 01:08:57;;;;;;;0.40;0.10;;;;;;;19.88;47.55;102310.59;16127528;19;129606;-61
2022/10/06 01:14:21;;;;;;;1.00;0.30;;;;;;;19.88;47.31;102321.72;16125146;19;130501;-61
2022/10/06 01:19:55;;;;;;;1.10;0.20;;;;;;;19.88;47.38;102334.75;16128089;19;129734;-62
2022/10/06 01:25:18;;;;;;;0.70;0.20;;;;;;;19.84;47.31;102340.75;16126088;19;129240;-62
2022/10/06 01:30:45;;;;;;;0.45;0.25;;;;;;;19.85;47.37;102330.47;16128423;19;129854;-62
2022/10/06 01:36:07;;;;;;;0.30;0.20;;;;;;;19.83;47.61;102355.69;16130531;19;129486;-62
2022/10/06 01:41:32;;;;;;;0.82;0.20;;;;;;;19.82;47.59;102365.09;16139418;19;129701;-62
2022/10/06 01:46:53;;;;;;;0.57;0.15;;;;;;;19.81;47.84;102373.66;16139623;19;131014;-62
2022/10/06 01:52:15;;;;;;;0.50;0.25;;;;;;;19.80;47.33;102375.56;16143515;19;130484;-62
2022/10/06 01:57:41;;;;;;;2.13;0.22;;;;;;;19.80;47.34;102385.84;16137438;19;130790;-61
2022/10/06 02:03:02;;;;;;;1.70;0.28;;;;;;;19.79;47.33;102378.56;16139863;19;129192;-62
2022/10/06 02:08:24;;;;;;;0.93;0.30;;;;;;;19.79;47.75;102389.69;16135516;19;129322;-62
2022/10/06 02:13:47;;;;;;;0.52;0.20;;;;;;;19.78;47.60;102396.31;16137122;19;129664;-62
2022/10/06 02:19:09;;;;;;;0.20;0.20;;;;;;;19.76;47.35;102398.44;16137559;19;129711;-62
2022/10/06 02:24:30;;;;;;;0.60;0.10;;;;;;;19.76;47.56;102412.31;16138463;19;129874;-61
2022/10/06 02:29:52;;;;;;;0.20;0.20;;;;;;;19.76;47.50;102412.31;16136907;19;129518;-62
2022/10/06 02:35:14;;;;;;;1.35;0.35;;;;;;;19.75;47.73;102424.50;16137225;19;129191;-62
2022/10/06 02:40:36;;;;;;;1.33;0.32;;;;;;;19.74;47.79;102434.78;16136962;19;130195;-62
2022/10/06 02:46:06;;;;;;;0.73;0.28;;;;;;;19.74;47.68;102434.78;16134180;19;130063;-62
2022/10/06 02:51:28;;;;;;;0.95;0.30;;;;;;;19.73;47.38;102452.50;16130428;19;129130;-62
2022/10/06 02:56:50;;;;;;;2.13;0.30;;;;;;;19.71;47.60;102446.31;16137101;19;129732;-62
2022/10/06 03:02:12;;;;;;;0.77;0.20;;;;;;;19.69;47.35;102459.53;16126322;19;129840;-62
2022/10/06 03:07:34;;;;;;;0.55;0.22;;;;;;;19.68;47.57;102468.94;16135124;19;129087;-61
2022/10/06 03:12:55;;;;;;;1.15;0.20;;;;;;;19.68;47.55;102478.16;16134881;19;130093;-62
2022/10/06 03:18:17;;;;;;;1.20;0.25;;;;;;;19.66;47.36;102483.06;16133056;19;129408;-62
2022/10/06 03:23:39;;;;;;;1.63;0.35;;;;;;;19.66;47.74;102494.16;16138167;19;129801;-61
2022/10/06 03:29:01;;;;;;;1.33;0.20;;;;;;;19.65;47.38;102497.13;16133426;19;129255;-62
2022/10/06 03:34:22;;;;;;;0.25;0.20;;;;;;;19.64;47.45;102498.19;16131688;19;130007;-62
2022/10/06 03:39:44;;;;;;;0.73;0.20;;;;;;;19.62;47.72;102508.69;16144232;19;129431;-61
2022/10/06 03:45:07;;;;;;;1.75;0.40;;;;;;;19.62;47.30;102511.47;16148805;19;129350;-62
2022/10/06 03:50:28;;;;;;;1.08;0.30;;;;;;;19.60;47.30;102528.31;16148620;19;129363;-62
2022/10/06 03:56:10;;;;;;;0.90;0.32;;;;;;;19.61;47.45;102532.81;16148860;19;130308;-62
2022/10/06 04:01:36;;;;;;;1.23;0.30;;;;;;;19.57;47.40;102537.06;16147974;19;130713;-62
2022/10/06 04:06:58;;;;;;;1.25;0.30;;;;;;;19.57;47.61;102545.38;16143824;19;130186;-62
2022/10/06 04:12:20;;;;;;;1.23;0.30;;;;;;;19.58;47.56;102562.91;16143467;19;129708;-62
2022/10/06 04:17:41;;;;;;;0.85;0.30;;;;;;;19.57;47.05;102569.53;16146501;19;129760;-62
2022/10/06 04:23:04;;;;;;;1.10;0.30;;;;;;;19.56;47.48;102570.59;16145448;19;129830;-62
2022/10/06 04:28:26;;;;;;;0.88;0.28;;;;;;;19.54;47.57;102570.81;16142786;19;129442;-62
2022/10/06 04:33:54;;;;;;;0.63;0.10;;;;;;;19.54;47.53;102584.72;16145951;19;129766;-62
2022/10/06 04:39:15;;;;;;;1.20;0.25;;;;;;;19.52;47.29;102581.28;16144086;19;129738;-62
2022/10/06 04:44:37;;;;;;;2.70;0.40;;;;;;;19.53;47.36;102596.88;16147356;19;130869;-62
2022/10/06 04:49:59;;;;;;;1.45;0.30;;;;;;;19.52;47.23;102603.50;16143850;19;129956;-62
2022/10/06 04:55:21;;;;;;;1.67;0.40;;;;;;;19.51;47.40;102612.88;16129126;19;130584;-62
2022/10/06 05:00:42;;;;;;;1.48;0.25;;;;;;;19.51;47.39;102623.97;16131412;19;130307;-62
2022/10/06 05:06:16;;;;;;;1.80;0.43;;;;;;;19.49;47.26;102626.09;16128486;19;129662;-62
2022/10/06 05:11:38;;;;;;;1.27;0.50;;;;;;;19.49;46.96;102637.22;16129148;19;133761;-62
2022/10/06 05:17:00;;;;;;;2.70;0.30;;;;;;;19.48;47.18;102635.50;16126440;19;129302;-63
2022/10/06 05:22:21;;;;;;;1.02;0.50;;;;;;;19.48;47.39;102652.16;16125959;19;130480;-63
2022/10/06 05:27:43;;;;;;;1.30;0.50;;;;;;;19.48;47.11;102660.47;16127588;19;130374;-63
2022/10/06 05:33:06;;;;;;;3.63;0.68;;;;;;;19.47;47.07;102678.19;16125789;19;129480;-63
2022/10/06 05:38:28;;;;;;;1.58;0.50;;;;;;;19.46;47.11;102670.94;16125120;19;130704;-62
2022/10/06 05:43:51;;;;;;;1.75;0.40;;;;;;;19.44;47.27;102682.25;16125666;19;130323;-62
2022/10/06 05:49:13;;;;;;;1.60;0.45;;;;;;;19.43;46.94;102690.81;16126159;19;130157;-63
2022/10/06 05:54:35;;;;;;;2.78;0.50;;;;;;;19.43;47.33;102688.03;16125679;19;129563;-63
2022/10/06 05:59:56;;;;;;;2.75;0.32;;;;;;;19.42;46.92;102697.41;16121065;19;130248;-62
2022/10/06 06:05:18;;;;;;;1.67;0.40;;;;;;;19.41;47.15;102707.66;16120413;19;130883;-63
2022/10/06 06:10:40;;;;;;;3.55;0.57;;;;;;;19.42;46.87;102709.38;16121704;19;130098;-63
2022/10/06 06:16:04;;;;;;;1.55;0.43;;;;;;;19.44;46.84;102714.72;16124016;19;129051;-63
2022/10/06 06:21:27;;;;;;;1.08;0.50;;;;;;;19.48;46.97;102718.78;16125066;19;129582;-63
2022/10/06 06:26:49;;;;;;;1.65;0.40;;;;;;;19.52;46.88;102729.25;16127640;19;130017;-63
2022/10/06 06:32:10;;;;;;;3.35;0.50;;;;;;;19.58;46.79;102749.75;16124617;19;129774;-63
2022/10/06 06:37:32;;;;;;;5.97;0.63;;;;;;;19.63;47.04;102750.00;16126124;19;129705;-63
2022/10/06 06:42:54;;;;;;;3.58;0.85;;;;;;;19.69;46.62;102754.72;16121744;19;129329;-63
2022/10/06 06:48:15;;;;;;;4.00;0.65;;;;;;;19.77;46.73;102761.16;16122617;19;129586;-63
2022/10/06 06:53:38;;;;;;;3.85;0.63;;;;;;;19.83;46.27;102772.28;16124413;19;130196;-63
2022/10/06 06:59:07;;;;;;;3.55;0.60;;;;;;;19.89;46.16;102770.59;16123141;19;130227;-63
2022/10/06 07:04:31;;;;;;;2.08;0.40;;;;;;;19.94;46.10;102779.13;16124370;19;129859;-63
2022/10/06 07:09:53;;;;;;;5.60;0.50;;;;;;;20.02;45.71;102785.59;16121868;19;130331;-63
2022/10/06 07:26:36;;;;;;;3.47;0.68;;;;;;;23.62;40.15;102808.25;16140014;19;129558;-71
2022/10/06 07:31:58;;;;;;;2.25;0.50;;;;;;;25.13;37.26;102813.78;16138961;19;134813;-71
2022/10/06 07:37:19;;;;;;;2.53;1.02;;;;;;;26.08;35.74;102835.97;16137968;19;129137;-64
2022/10/06 07:42:48;;;;;;;1.85;0.63;;;;;;;27.06;33.57;102844.38;16133908;19;129458;-67
2022/10/06 07:48:13;;;;;;;2.78;0.60;;;;;;;27.78;32.24;102856.59;16133125;19;129920;-61
2022/10/06 07:53:36;;;;;;;3.35;0.82;;;;;;;28.43;31.31;102858.69;16134103;19;129573;-61
2022/10/06 07:58:58;;;;;;;1.77;0.52;;;;;;;28.99;30.35;102863.97;16137337;19;133721;-61
2022/10/06 08:04:19;;;;;;;3.35;0.60;;;;;;;29.23;29.93;102875.69;16133357;19;130725;-61
2022/10/06 08:09:41;;;;;;;1.95;0.50;;;;;;;27.94;31.25;102886.63;16134123;19;129345;-61
2022/10/06 08:15:10;;;;;;;3.88;0.68;;;;;;;26.11;33.33;102893.50;16132646;19;129598;-61
2022/10/06 08:20:31;;;;;;;2.72;0.70;;;;;;;24.69;35.50;102888.88;16132877;19;129869;-61
2022/10/06 08:25:55;;;;;;;2.30;0.70;;;;;;;23.71;37.00;102900.97;16129973;19;129664;-61
2022/10/06 08:31:19;;;;;;;1.83;0.60;;;;;;;22.99;38.42;102909.84;16133808;19;130328;-64
2022/10/06 08:36:42;;;;;;;2.70;0.55;;;;;;;22.46;39.63;102922.22;16128798;19;129643;-64
2022/10/06 08:42:44;;;;;;;2.45;0.73;;;;;;;22.04;40.27;102912.34;16131112;19;129601;-63
2022/10/06 08:48:15;;;;;;;2.05;0.82;;;;;;;21.73;40.82;102916.75;16130577;19;129270;-63
2022/10/06 08:53:45;;;;;;;2.83;0.70;;;;;;;21.50;41.21;102929.25;16132390;19;129570;-63
2022/10/06 08:59:11;;;;;;;4.15;0.80;;;;;;;21.32;41.78;102923.44;16128749;19;129217;-64
2022/10/06 09:04:33;;;;;;;2.15;0.80;;;;;;;21.16;42.05;102931.19;16128371;19;129583;-63
2022/10/06 09:10:32;;;;;;;2.33;0.65;;;;;;;21.04;42.84;102944.03;16129799;19;129521;-63
2022/10/06 09:15:58;;;;;;;3.35;0.98;;;;;;;20.93;42.56;102947.44;16129634;19;129728;-63
2022/10/06 09:21:33;;;;;;;4.72;0.70;;;;;;;20.85;43.08;102952.16;16128219;19;129499;-62
2022/10/06 09:26:57;;;;;;;5.60;1.00;;;;;;;20.75;43.17;102952.56;16130594;19;129348;-61
2022/10/06 09:32:21;;;;;;;1.58;0.52;;;;;;;20.69;43.16;102975.63;16128281;19;129941;-63
2022/10/06 09:38:03;;;;;;;2.38;0.80;;;;;;;20.64;43.41;102961.47;16127879;19;129664;-63
2022/10/06 09:43:30;;;;;;;2.23;0.87;;;;;;;20.56;43.74;102975.59;16130178;19;129296;-63
2022/10/06 09:49:15;;;;;;;2.88;0.70;;;;;;;20.52;44.06;102979.84;16126472;19;129809;-63
2022/10/06 09:54:37;;;;;;;2.55;0.70;;;;;;;20.44;43.95;102973.44;16125095;19;130843;-63
2022/10/06 10:00:00;;;;;;;5.15;0.65;;;;;;;20.40;43.89;102982.41;16123187;19;130810;-63
2022/10/06 10:05:23;;;;;;;3.10;0.70;;;;;;;20.35;44.13;102980.25;16122417;19;129613;-62
2022/10/06 10:10:45;;;;;;;2.17;0.85;;;;;;;20.32;44.26;102985.34;16124380;19;129556;-63
2022/10/06 10:16:09;;;;;;;2.13;0.65;;;;;;;20.28;44.29;102990.47;16123066;19;129314;-66
2022/10/06 10:21:35;;;;;;;4.95;1.15;;;;;;;20.26;44.29;102992.59;16122384;19;129473;-63
2022/10/06 10:27:22;;;;;;;3.30;0.90;;;;;;;20.23;44.67;102988.31;16124374;19;129610;-63
2022/10/06 10:32:53;;;;;;;2.45;0.60;;;;;;;20.21;44.88;102989.59;16122157;19;130136;-63
2022/10/06 10:38:18;;;;;;;2.10;0.60;;;;;;;20.18;44.80;102976.09;16124743;19;129622;-63
2022/10/06 10:43:48;;;;;;;1.20;0.50;;;;;;;20.16;44.47;102986.56;16122390;19;130593;-63
2022/10/06 10:49:26;;;;;;;2.78;0.85;;;;;;;20.13;44.92;102977.56;16122285;19;129600;-63
2022/10/06 10:54:57;;;;;;;3.35;0.52;;;;;;;20.11;44.59;102981.63;16121052;19;129398;-63
2022/10/06 11:00:24;;;;;;;1.90;0.60;;;;;;;20.09;45.02;102978.19;16120202;19;129528;-63
2022/10/06 11:06:19;;;;;;;1.90;0.40;;;;;;;20.07;45.03;102980.31;16119186;19;131229;-64
2022/10/06 11:11:53;;;;;;;2.88;0.40;;;;;;;20.06;45.13;102987.81;16120964;19;130891;-64
2022/10/06 11:17:38;;;;;;;1.30;0.50;;;;;;;20.03;45.14;102981.81;16121414;19;129733;-64
2022/10/06 11:23:27;;;;;;;1.20;0.50;;;;;;;20.03;45.04;102992.91;16119787;19;129375;-63
2022/10/06 11:28:58;;;;;;;2.80;0.60;;;;;;;19.98;44.89;102986.00;16118232;19;129805;-64
2022/10/06 11:34:20;;;;;;;2.17;0.60;;;;;;;19.98;45.18;102983.25;16118478;19;129339;-63
2022/10/06 11:40:02;;;;;;;1.88;0.50;;;;;;;19.97;44.74;102978.75;16118673;19;129138;-63
2022/10/06 11:45:58;;;;;;;1.08;0.40;;;;;;;19.97;44.71;102978.75;16118171;19;129464;-63
2022/10/06 11:51:23;;;;;;;1.88;0.55;;;;;;;19.94;44.69;102973.59;16109746;19;129344;-63
2022/10/06 11:56:45;;;;;;;2.43;0.50;;;;;;;19.94;45.11;102969.97;16106950;19;129373;-63
2022/10/06 12:02:36;;;;;;;2.90;0.77;;;;;;;19.95;44.67;102963.34;16123896;19;130074;-63
2022/10/06 12:07:58;;;;;;;2.45;0.50;;;;;;;19.90;44.77;102950.09;16125502;19;129770;-64
2022/10/06 12:13:24;;;;;;;3.92;0.70;;;;;;;19.90;44.53;102963.97;16122131;19;129297;-63
2022/10/06 12:19:18;;;;;;;;;;;;;;;19.86;44.99;102954.31;16125085;19;129160;-63
2022/10/06 12:24:53;;;;;;;1.58;0.40;;;;;;;19.89;45.02;102945.59;16122067;19;129566;-64
2022/10/06 12:30:29;;;;;;;2.53;0.60;;;;;;;19.89;44.24;102944.72;16125256;19;129433;-61
2022/10/06 12:36:00;;;;;;;6.60;0.80;;;;;;;19.91;43.96;102945.38;16131373;19;129411;-61
2022/10/06 12:41:58;;;;;;;4.03;0.70;;;;;;;19.91;43.39;102940.69;16128240;19;130129;-61
2022/10/06 12:47:33;;;;;;;5.40;0.75;;;;;;;19.94;42.76;102943.03;16130766;19;130815;-62
2022/10/06 12:53:04;;;;;;;4.90;1.30;;;;;;;19.93;42.64;102944.13;16129251;19;130263;-62
2022/10/06 12:58:31;;;;;;;5.85;0.90;;;;;;;19.94;42.18;102934.69;16124853;19;130155;-61
2022/10/06 13:03:54;;;;;;;3.60;0.70;;;;;;;19.93;41.84;102935.78;16125802;19;132916;-61
2022/10/06 13:09:15;;;;;;;4.30;0.88;;;;;;;19.94;41.69;102923.59;16121729;19;129737;-62
2022/10/06 13:14:37;;;;;;;4.20;0.60;;;;;;;19.94;41.69;102923.59;16126078;19;130482;-61
2022/10/06 13:19:59;;;;;;;2.75;0.73;;;;;;;19.93;41.64;102930.22;16126517;19;129538;-62
2022/10/06 13:25:22;;;;;;;6.20;0.73;;;;;;;19.92;41.42;102925.75;16127749;19;129612;-60
2022/10/06 13:30:49;;;;;;;5.57;1.20;;;;;;;19.94;41.13;102926.34;16126442;19;129456;-62
2022/10/06 13:36:12;;;;;;;4.65;0.80;;;;;;;19.94;41.16;102926.34;16127851;19;129225;-62
2022/10/06 13:41:40;;;;;;;4.38;1.00;;;;;;;19.94;40.99;102920.81;16125805;19;129642;-62
2022/10/06 13:47:14;;;;;;;3.08;1.00;;;;;;;19.95;40.70;102928.06;16126423;19;129194;-62
2022/10/06 13:52:45;;;;;;;4.28;0.80;;;;;;;19.93;41.07;102921.91;16127496;19;129673;-62
2022/10/06 13:58:08;;;;;;;3.75;0.70;;;;;;;19.92;40.80;102920.19;16123755;19;129160;-62
2022/10/06 14:03:35;;;;;;;2.05;0.70;;;;;;;19.91;40.48;102921.25;16127171;19;129598;-62
2022/10/06 14:09:22;;;;;;;1.98;0.57;;;;;;;19.91;40.54;102921.25;16123778;19;129502;-62
2022/10/06 14:14:49;;;;;;;2.05;0.60;;;;;;;19.91;40.27;102924.03;16123314;19;129600;-62
2022/10/06 14:20:44;;;;;;;2.17;0.80;;;;;;;19.91;40.66;102918.47;16122460;19;129121;-62
2022/10/06 14:26:08;;;;;;;2.97;0.47;;;;;;;19.90;40.25;102922.31;16121606;19;129038;-62
2022/10/06 14:31:32;;;;;;;2.22;0.43;;;;;;;19.90;40.78;102915.88;16120953;19;129439;-63
2022/10/06 14:36:54;;;;;;;4.50;0.60;;;;;;;19.89;40.67;102909.47;16124360;19;129463;-62
2022/10/06 14:42:16;;;;;;;3.80;0.40;;;;;;;19.89;40.35;102909.47;16122609;19;129548;-61
2022/10/06 14:47:37;;;;;;;4.28;0.40;;;;;;;19.87;40.46;102913.53;16122617;19;130025;-64
2022/10/06 14:53:00;;;;;;;1.33;0.50;;;;;;;19.86;40.48;102915.44;16121503;19;129729;-65
2022/10/06 14:58:21;;;;;;;2.75;0.90;;;;;;;19.87;40.12;102910.75;16118493;19;129711;-64
2022/10/06 15:03:50;;;;;;;4.53;0.80;;;;;;;19.87;40.31;102906.03;16118580;19;129596;-63
2022/10/06 15:09:12;;;;;;;1.70;0.60;;;;;;;19.86;40.31;102896.00;16118535;19;130158;-63
2022/10/06 15:14:38;;;;;;;1.00;0.40;;;;;;;19.86;40.36;102900.72;16123485;19;129997;-63
2022/10/06 15:20:00;;;;;;;2.17;0.65;;;;;;;19.84;40.47;102895.34;16118370;19;129255;-63
2022/10/06 15:31:02;;;;;;;2.70;0.55;;;;;;;19.82;40.60;102895.56;16122198;19;130688;-63
2022/10/06 15:36:24;;;;;;;4.20;0.90;;;;;;;19.83;40.14;102894.50;16130931;19;129958;-63
2022/10/06 15:41:46;;;;;;;3.05;0.70;;;;;;;19.83;40.41;102883.38;16131978;19;129616;-63
2022/10/06 15:47:08;;;;;;;6.88;0.90;;;;;;;19.84;40.12;102878.66;16135816;19;130522;-63
2022/10/06 15:52:32;;;;;;;6.95;1.30;;;;;;;19.83;40.02;102874.19;16135294;19;129043;-62
2022/10/06 15:57:54;;;;;;;8.23;1.15;;;;;;;19.83;40.19;102882.50;16132983;19;129452;-62
2022/10/06 16:03:33;;;;;;;5.60;1.13;;;;;;;19.83;39.72;102879.72;16134265;19;129071;-62
2022/10/06 16:09:01;;;;;;;24.55;3.42;;;;;;;19.79;40.05;102873.75;16133375;19;129835;-62
2022/10/06 16:14:23;;;;;;;16.00;2.60;;;;;;;19.79;40.52;102873.75;16131891;19;130075;-62
2022/10/06 16:19:46;;;;;;;11.57;2.90;;;;;;;19.77;39.96;102867.53;16131661;19;129761;-62
2022/10/06 16:25:07;;;;;;;10.90;2.85;;;;;;;19.76;40.30;102863.03;16131289;19;129479;-62
2022/10/06 16:30:29;;;;;;;12.70;2.67;;;;;;;19.76;40.06;102867.75;16133075;19;130633;-62
2022/10/06 16:35:55;;;;;;;11.70;2.65;;;;;;;19.73;40.27;102865.38;16131245;19;130053;-61
2022/10/06 16:41:18;;;;;;;11.52;2.53;;;;;;;19.71;40.78;102861.94;16132541;19;131488;-62
2022/10/06 16:46:39;;;;;;;10.05;1.73;;;;;;;19.73;40.19;102857.03;16129839;19;129916;-62
2022/10/06 16:52:01;;;;;;;8.65;1.67;;;;;;;19.65;39.30;102856.19;16129630;19;131213;-60
2022/10/06 16:57:23;;;;;;;23.60;2.03;;;;;;;19.68;39.19;102855.78;16122767;19;129713;-53
2022/10/06 17:02:45;;;;;;;66.07;4.93;;;;;;;19.71;39.25;102861.94;16123337;19;129766;-59
2022/10/06 17:08:07;;;;;;;33.65;2.42;;;;;;;19.76;39.64;102860.25;16127042;19;129528;-63
2022/10/06 17:13:29;;;;;;;20.25;2.30;;;;;;;19.94;39.61;102862.47;16125367;19;129323;-56
2022/10/06 17:18:54;;;;;;;15.10;1.92;;;;;;;20.18;40.04;102862.16;16122161;19;129427;-55
2022/10/06 17:24:16;;;;;;;;;;;;;;;20.34;39.78;102860.91;16121865;19;130153;-58
2022/10/06 17:29:38;;;;;;;11.60;1.70;;;;;;;20.49;39.91;102858.78;16126062;19;129817;-61
2022/10/06 17:35:00;;;;;;;17.40;1.85;;;;;;;20.56;40.16;102862.44;16126032;19;129420;-52
2022/10/06 17:40:22;;;;;;;7.78;1.25;;;;;;;20.61;40.31;102861.81;16123725;19;129584;-59
2022/10/06 17:45:45;;;;;;;7.95;1.35;;;;;;;20.63;40.31;102864.38;16047062;19;129473;-61
2022/10/06 17:51:07;;;;;;;12.07;1.67;;;;;;;20.60;40.48;102860.94;16126044;19;130431;-57
2022/10/06 17:56:34;;;;;;;6.32;1.17;;;;;;;20.59;40.50;102858.38;16123960;19;129875;-64
2022/10/06 18:01:58;;;;;;;8.90;1.20;;;;;;;20.56;41.09;102853.25;16123785;19;130411;-60
2022/10/06 18:07:20;;;;;;;11.40;1.13;;;;;;;20.52;40.83;102857.50;16121592;19;129590;-59
2022/10/06 18:12:42;;;;;;;8.30;1.27;;;;;;;20.50;41.51;102852.16;16125169;19;130849;-52
2022/10/06 18:18:04;;;;;;;17.08;1.70;;;;;;;20.49;41.43;102864.34;16118937;19;129939;-58
2022/10/06 18:23:26;;;;;;;10.45;1.33;;;;;;;20.48;41.53;102850.69;16124071;19;129555;-60
2022/10/06 18:28:49;;;;;;;14.00;1.45;;;;;;;20.49;41.69;102855.19;16119236;19;129360;-57
2022/10/06 18:34:11;;;;;;;12.38;1.50;;;;;;;20.46;41.71;102850.88;16119753;19;129467;-58
2022/10/06 18:39:53;;;;;;;12.93;1.25;;;;;;;20.45;42.11;102843.59;16121161;19;134032;-59
2022/10/06 18:51:00;;;;;;;40.40;4.53;;;;;;;20.44;42.80;102839.09;16120747;19;129791;-61
2022/10/06 18:56:28;;;;;;;17.40;2.13;;;;;;;20.46;42.83;102842.53;16120929;19;129599;-62
2022/10/06 19:01:50;;;;;;;12.38;1.52;;;;;;;20.45;42.95;102841.69;16122181;19;129981;-57
2022/10/06 19:07:12;;;;;;;10.35;1.40;;;;;;;20.49;42.79;102836.56;16121400;19;130274;-62
2022/10/06 19:12:33;;;;;;;12.68;1.95;;;;;;;20.55;42.94;102844.06;16135168;19;129648;-59
2022/10/06 19:17:55;;;;;;;5.88;1.10;;;;;;;20.65;42.75;102838.06;16135632;19;130469;-59
2022/10/06 19:23:17;;;;;;;10.23;1.38;;;;;;;20.72;42.58;102836.16;16134385;19;129581;-60
2022/10/06 19:28:39;;;;;;;12.57;1.40;;;;;;;20.80;42.92;102837.03;16135485;19;129238;-56
2022/10/06 19:34:03;;;;;;;9.00;1.10;;;;;;;20.84;42.51;102841.94;16132252;19;129669;-58
2022/10/06 19:39:27;;;;;;;6.85;1.25;;;;;;;20.90;42.77;102838.31;16132042;19;129548;-60
2022/10/06 19:44:48;;;;;;;9.55;1.15;;;;;;;20.96;42.76;102841.28;16135093;19;129430;-62
2022/10/06 19:50:10;;;;;;;27.92;1.95;;;;;;;21.01;42.94;102844.28;16133298;19;131004;-55
2022/10/06 19:55:33;;;;;;;13.38;1.83;;;;;;;21.04;42.81;102841.06;16133387;19;129603;-50
2022/10/06 20:00:55;;;;;;;12.98;1.50;;;;;;;21.09;42.65;102848.78;16127373;19;129331;-54
2022/10/06 20:06:17;;;;;;;4.78;1.30;;;;;;;21.11;43.07;102843.84;16121672;19;129544;-60
2022/10/06 20:11:42;;;;;;;16.48;1.85;;;;;;;21.10;43.00;102840.19;16125433;19;130196;-63
2022/10/06 20:17:04;;;;;;;12.43;1.23;;;;;;;21.03;42.95;102845.78;16140668;19;130261;-66
2022/10/06 20:22:26;;;;;;;16.90;1.60;;;;;;;20.96;42.99;102838.50;16136190;19;130972;-60
2022/10/06 20:27:49;;;;;;;6.93;0.90;;;;;;;20.88;43.01;102845.13;16134332;19;130517;-62
2022/10/06 20:33:10;;;;;;;6.40;1.10;;;;;;;20.82;42.73;102843.22;16132663;19;129747;-61
2022/10/06 20:44:12;;;;;;;9.23;1.25;;;;;;;20.66;42.92;102845.31;16136577;19;129674;-61
2022/10/06 20:49:34;;;;;;;8.05;1.23;;;;;;;20.60;43.01;102849.81;16138108;19;129764;-63
2022/10/06 20:54:56;;;;;;;8.77;1.27;;;;;;;20.54;43.27;102853.47;16138214;19;129562;-62
2022/10/06 21:00:17;;;;;;;5.00;0.80;;;;;;;20.51;43.09;102847.44;16137569;19;129374;-62
2022/10/06 21:05:47;;;;;;;5.97;1.02;;;;;;;20.45;43.21;102838.91;16135258;19;130038;-61
2022/10/06 21:11:13;;;;;;;7.10;0.90;;;;;;;20.40;43.38;102835.06;16135484;19;129425;-63
2022/10/06 21:16:36;;;;;;;2.47;1.00;;;;;;;20.38;43.69;102834.41;16140576;19;129548;-62
2022/10/06 21:21:59;;;;;;;3.00;0.85;;;;;;;20.34;43.30;102831.19;16138286;19;133620;-61
2022/10/06 21:27:21;;;;;;;4.05;1.00;;;;;;;20.32;43.65;102824.13;16135136;19;129682;-61
2022/10/06 21:32:42;;;;;;;2.88;0.60;;;;;;;20.33;43.78;102823.06;16134031;19;129064;-62
2022/10/06 21:38:06;;;;;;;4.00;0.77;;;;;;;20.31;43.65;102828.84;16127228;19;130097;-62
2022/10/06 21:43:27;;;;;;;4.00;0.52;;;;;;;20.28;43.78;102818.13;16130565;19;129848;-62
2022/10/06 21:48:54;;;;;;;3.38;0.43;;;;;;;20.23;43.58;102807.66;16131819;19;129779;-62
2022/10/06 21:54:17;;;;;;;2.50;0.45;;;;;;;20.22;43.77;102803.16;16131861;19;129891;-62
2022/10/06 21:59:39;;;;;;;2.45;0.57;;;;;;;20.20;43.60;102810.00;16129696;19;129304;-61
2022/10/06 22:05:01;;;;;;;1.60;0.47;;;;;;;20.16;43.42;102804.03;16127665;19;129671;-62
2022/10/06 22:10:22;;;;;;;1.88;0.47;;;;;;;20.15;43.46;102796.75;16129165;19;129807;-62
2022/10/06 22:15:44;;;;;;;1.38;0.43;;;;;;;20.15;43.38;102796.75;16133252;19;128943;-62
2022/10/06 22:21:26;;;;;;;1.95;0.73;;;;;;;20.16;43.36;102798.47;16129062;19;129145;-62
2022/10/06 22:26:48;;;;;;;1.73;0.43;;;;;;;20.10;43.64;102788.19;16127812;19;129490;-62
2022/10/06 22:32:10;;;;;;;0.75;0.38;;;;;;;20.08;43.81;102795.88;16125686;19;131047;-62
2022/10/06 22:37:31;;;;;;;3.08;0.55;;;;;;;20.08;43.76;102795.88;16122182;19;129668;-62
2022/10/06 22:42:53;;;;;;;3.10;0.60;;;;;;;20.05;43.88;102785.19;16121362;19;129744;-62
2022/10/06 22:48:15;;;;;;;1.48;0.57;;;;;;;20.04;43.67;102783.47;16123531;19;129071;-62
2022/10/06 22:53:36;;;;;;;2.67;0.40;;;;;;;20.01;43.94;102779.19;16122957;19;129410;-63
2022/10/06 22:58:59;;;;;;;1.92;0.50;;;;;;;20.00;43.70;102777.47;16120909;19;130504;-62
2022/10/06 23:04:21;;;;;;;0.88;0.40;;;;;;;19.99;43.84;102772.97;16122311;19;129767;-62
2022/10/06 23:09:42;;;;;;;1.00;0.30;;;;;;;19.97;43.78;102762.06;16120378;19;129940;-62
2022/10/06 23:15:05;;;;;;;1.45;0.40;;;;;;;19.95;43.68;102750.28;16119760;19;129693;-62
2022/10/06 23:20:26;;;;;;;1.55;0.50;;;;;;;19.93;43.83;102741.34;16118101;19;129717;-62
2022/10/06 23:25:48;;;;;;;0.70;0.30;;;;;;;19.90;44.04;102738.97;16118481;19;129589;-63
2022/10/06 23:31:10;;;;;;;2.50;1.02;;;;;;;19.88;43.85;102741.09;16117742;19;130078;-63
2022/10/06 23:36:32;;;;;;;1.05;0.32;;;;;;;19.87;44.01;102736.59;16120808;19;129576;-62
2022/10/06 23:41:54;;;;;;;1.88;0.32;;;;;;;19.86;43.66;102721.00;16125470;19;129552;-71
2022/10/06 23:47:15;;;;;;;1.20;0.50;;;;;;;19.86;43.93;102722.94;16121984;19;130670;-73
2022/10/06 23:52:37;;;;;;;1.13;0.38;;;;;;;19.84;44.07;102718.44;16124153;19;130028;-65
2022/10/06 23:57:59;;;;;;;2.08;0.30;;;;;;;19.83;43.91;102715.88;16137875;19;131316;-62
